createdAt,value
2024-01-20T00:00:17.969Z,19.23
2024-01-20T00:02:47.592Z,19.20
2024-01-20T00:05:14.602Z,18.97
2024-01-20T00:07:44.114Z,19.47
2024-01-20T00:10:13.234Z,18.97
2024-01-20T00:12:41.710Z,18.80
2024-01-20T00:15:10.164Z,18.40
2024-01-20T00:17:38.888Z,19.20
2024-01-20T00:20:06.681Z,23.47
2024-01-20T00:22:33.728Z,18.97
2024-01-20T00:25:05.821Z,16.67
2024-01-20T00:27:32.821Z,23.43
2024-01-20T00:30:01.394Z,18.27
2024-01-20T00:32:29.259Z,17.50
2024-01-20T00:35:05.536Z,21.83
2024-01-20T00:37:39.291Z,21.10
2024-01-20T00:40:07.709Z,23.20
2024-01-20T00:42:34.699Z,17.90
2024-01-20T00:45:01.585Z,17.47
2024-01-20T00:47:31.646Z,21.00
2024-01-20T00:49:59.798Z,22.80
2024-01-20T00:52:26.814Z,22.37
2024-01-20T00:54:53.649Z,21.93
2024-01-20T00:57:20.427Z,17.00
2024-01-20T00:59:47.282Z,15.83
2024-01-20T01:02:16.760Z,18.60
2024-01-20T01:04:44.201Z,17.97
2024-01-20T01:07:11.248Z,17.00
2024-01-20T01:09:41.166Z,18.03
2024-01-20T01:12:08.093Z,16.73
2024-01-20T01:14:35.016Z,18.30
2024-01-20T01:17:01.812Z,17.63
2024-01-20T01:19:28.616Z,16.40
2024-01-20T01:21:55.343Z,17.10
2024-01-20T01:24:22.251Z,16.73
2024-01-20T01:26:49.191Z,17.80
2024-01-20T01:29:15.972Z,16.07
2024-01-20T01:31:44.963Z,15.87
2024-01-20T01:34:14.708Z,17.17
2024-01-20T01:36:41.508Z,15.63
2024-01-20T01:39:08.213Z,16.37
2024-01-20T01:41:35.293Z,17.63
2024-01-20T01:44:02.895Z,20.30
2024-01-20T01:46:31.333Z,15.80
2024-01-20T01:48:58.513Z,15.73
2024-01-20T01:51:25.348Z,17.63
2024-01-20T01:53:52.253Z,14.90
2024-01-20T01:56:21.027Z,15.97
2024-01-20T01:58:48.212Z,16.23
2024-01-20T02:01:15.153Z,15.63
2024-01-20T02:03:42.243Z,15.73
2024-01-20T02:06:09.936Z,17.10
2024-01-20T02:08:37.140Z,16.80
2024-01-20T02:11:04.058Z,15.83
2024-01-20T02:13:31.654Z,16.40
2024-01-20T02:15:58.517Z,16.00
2024-01-20T02:18:25.509Z,16.53
2024-01-20T02:20:52.424Z,17.97
2024-01-20T02:23:19.183Z,15.93
2024-01-20T02:25:47.293Z,15.00
2024-01-20T02:28:15.082Z,16.63
2024-01-20T02:30:42.722Z,14.70
2024-01-20T02:33:10.037Z,15.03
2024-01-20T02:35:36.834Z,15.90
2024-01-20T02:38:03.729Z,16.90
2024-01-20T02:40:30.427Z,17.23
2024-01-20T02:42:57.831Z,16.03
2024-01-20T02:45:27.569Z,14.97
2024-01-20T02:47:55.701Z,14.73
2024-01-20T02:50:22.840Z,13.70
2024-01-20T02:52:49.611Z,16.17
2024-01-20T02:55:16.338Z,15.53
2024-01-20T02:57:43.156Z,15.10
2024-01-20T03:00:10.614Z,15.40
2024-01-20T03:02:37.317Z,14.87
2024-01-20T03:05:04.366Z,15.43
2024-01-20T03:07:31.221Z,15.37
2024-01-20T03:09:57.958Z,15.37
2024-01-20T03:12:24.930Z,15.53
2024-01-20T03:14:51.822Z,15.23
2024-01-20T03:17:18.563Z,15.77
2024-01-20T03:19:45.446Z,16.33
2024-01-20T03:22:12.319Z,15.47
2024-01-20T03:24:39.230Z,15.73
2024-01-20T03:27:05.978Z,15.60
2024-01-20T03:29:32.789Z,15.53
2024-01-20T03:31:59.559Z,15.90
2024-01-20T03:34:26.403Z,16.73
2024-01-20T03:36:53.349Z,14.60
2024-01-20T03:39:20.131Z,16.57
2024-01-20T03:41:46.840Z,16.57
2024-01-20T03:44:13.712Z,15.77
2024-01-20T03:46:42.338Z,15.80
2024-01-20T03:49:09.263Z,16.30
2024-01-20T03:51:35.996Z,15.30
2024-01-20T03:54:05.345Z,16.07
2024-01-20T03:56:32.344Z,14.87
2024-01-20T03:58:59.958Z,15.83
2024-01-20T04:01:26.625Z,14.70
2024-01-20T04:03:53.548Z,16.70
2024-01-20T04:06:20.321Z,16.30
2024-01-20T04:08:47.078Z,14.70
2024-01-20T04:11:13.807Z,15.30
2024-01-20T04:13:40.538Z,14.73
2024-01-20T04:16:07.255Z,14.63
2024-01-20T04:18:34.338Z,15.60
2024-01-20T04:21:02.767Z,14.40
2024-01-20T04:23:29.547Z,15.00
2024-01-20T04:25:56.390Z,14.87
2024-01-20T04:28:23.157Z,13.50
2024-01-20T04:30:51.177Z,14.10
2024-01-20T04:33:18.118Z,14.77
2024-01-20T04:35:44.883Z,14.27
2024-01-20T04:38:11.852Z,16.37
2024-01-20T04:40:41.636Z,13.07
2024-01-20T04:43:10.577Z,14.33
2024-01-20T04:45:40.428Z,14.57
2024-01-20T04:48:10.249Z,13.67
2024-01-20T04:50:36.992Z,13.57
2024-01-20T04:53:03.837Z,14.07
2024-01-20T04:55:30.574Z,15.57
2024-01-20T04:58:00.494Z,12.57
2024-01-20T05:00:27.358Z,13.60
2024-01-20T05:02:54.113Z,13.67
2024-01-20T05:05:20.781Z,13.67
2024-01-20T05:07:47.447Z,11.77
2024-01-20T05:10:14.626Z,12.43
2024-01-20T05:12:44.112Z,13.80
2024-01-20T05:15:13.026Z,12.80
2024-01-20T05:17:40.326Z,13.83
2024-01-20T05:20:07.688Z,13.70
2024-01-20T05:22:34.449Z,12.93
2024-01-20T05:25:03.720Z,11.57
2024-01-20T05:27:30.700Z,13.17
2024-01-20T05:29:57.437Z,12.27
2024-01-20T05:32:24.252Z,11.87
2024-01-20T05:34:53.768Z,12.57
2024-01-20T05:37:20.488Z,12.83
2024-01-20T05:39:47.174Z,12.07
2024-01-20T05:42:13.997Z,13.03
2024-01-20T05:44:41.083Z,12.17
2024-01-20T05:47:07.817Z,11.53
2024-01-20T05:49:34.657Z,11.83
2024-01-20T05:52:01.441Z,11.13
2024-01-20T05:54:30.428Z,14.43
2024-01-20T05:57:00.028Z,11.80
2024-01-20T05:59:26.687Z,12.23
2024-01-20T06:01:53.542Z,11.33
2024-01-20T06:04:20.973Z,12.43
2024-01-20T06:06:47.888Z,15.03
2024-01-20T06:09:17.606Z,14.90
2024-01-20T06:11:44.488Z,10.13
2024-01-20T06:14:11.219Z,11.90
2024-01-20T06:16:40.245Z,13.23
2024-01-20T06:19:07.504Z,11.17
2024-01-20T06:21:34.330Z,10.83
2024-01-20T06:24:01.104Z,11.87
2024-01-20T06:26:27.833Z,11.93
2024-01-20T06:28:54.558Z,11.93
2024-01-20T06:31:27.749Z,12.30
2024-01-20T06:33:55.748Z,11.47
2024-01-20T06:36:23.222Z,14.23
2024-01-20T06:38:50.002Z,11.27
2024-01-20T06:41:17.025Z,11.93
2024-01-20T06:43:44.158Z,11.63
2024-01-20T06:46:10.950Z,10.67
2024-01-20T06:48:37.799Z,11.60
2024-01-20T06:51:05.134Z,13.13
2024-01-20T06:53:32.898Z,12.33
2024-01-20T06:56:01.832Z,14.63
2024-01-20T06:58:28.525Z,15.30
2024-01-20T07:00:55.303Z,12.57
2024-01-20T07:03:22.977Z,11.23
2024-01-20T07:05:50.052Z,11.40
2024-01-20T07:08:16.824Z,12.10
2024-01-20T07:10:43.750Z,11.70
2024-01-20T07:13:10.502Z,11.40
2024-01-20T07:15:37.210Z,11.80
2024-01-20T07:18:05.589Z,13.20
2024-01-20T07:20:32.351Z,12.50
2024-01-20T07:22:59.433Z,10.97
2024-01-20T07:25:26.250Z,12.10
2024-01-20T07:27:52.918Z,12.13
2024-01-20T07:30:19.826Z,11.60
2024-01-20T07:32:46.525Z,11.37
2024-01-20T07:35:13.355Z,12.20
2024-01-20T07:37:40.470Z,12.60
2024-01-20T07:40:07.825Z,10.67
2024-01-20T07:42:35.708Z,11.90
2024-01-20T07:45:03.866Z,11.57
2024-01-20T07:47:30.736Z,11.73
2024-01-20T07:49:57.453Z,12.00
2024-01-20T07:52:24.296Z,12.33
2024-01-20T07:54:51.022Z,12.97
2024-01-20T07:57:17.810Z,12.17
2024-01-20T07:59:47.402Z,11.17
2024-01-20T08:02:15.582Z,13.23
2024-01-20T08:04:42.345Z,12.90
2024-01-20T08:07:10.350Z,11.90
2024-01-20T08:09:37.318Z,13.30
2024-01-20T08:12:04.882Z,13.10
2024-01-20T08:14:31.764Z,13.47
2024-01-20T08:16:58.563Z,11.63
2024-01-20T08:19:25.350Z,14.13
2024-01-20T08:21:52.071Z,13.67
2024-01-20T08:24:18.869Z,12.87
2024-01-20T08:26:46.716Z,12.90
2024-01-20T08:29:13.767Z,13.23
2024-01-20T08:31:40.477Z,13.43
2024-01-20T08:34:07.266Z,14.57
2024-01-20T08:36:34.153Z,13.67
2024-01-20T08:39:03.805Z,14.53
2024-01-20T08:41:30.962Z,13.77
2024-01-20T08:43:57.833Z,13.47
2024-01-20T08:46:26.342Z,13.63
2024-01-20T08:48:53.410Z,13.53
2024-01-20T08:51:20.568Z,14.07
2024-01-20T08:53:47.429Z,14.00
2024-01-20T08:56:14.535Z,13.17
2024-01-20T08:58:41.306Z,13.47
2024-01-20T09:01:08.593Z,12.50
2024-01-20T09:03:35.474Z,13.40
2024-01-20T09:06:02.800Z,12.20
2024-01-20T09:08:29.603Z,13.80
2024-01-20T09:10:57.573Z,14.20
2024-01-20T09:13:24.352Z,12.60
2024-01-20T09:15:51.323Z,14.20
2024-01-20T09:18:19.036Z,14.50
2024-01-20T09:20:47.082Z,13.70
2024-01-20T09:23:14.253Z,13.53
2024-01-20T09:25:40.974Z,13.80
2024-01-20T09:28:07.905Z,12.80
2024-01-20T09:30:36.814Z,12.27
2024-01-20T09:33:05.934Z,13.87
2024-01-20T09:35:32.854Z,13.07
2024-01-20T09:37:59.673Z,12.47
2024-01-20T09:40:26.601Z,12.37
2024-01-20T09:42:53.525Z,12.43
2024-01-20T09:45:20.780Z,12.93
2024-01-20T09:47:47.712Z,12.60
2024-01-20T09:50:14.725Z,12.87
2024-01-20T09:52:53.478Z,13.63
2024-01-20T09:55:22.863Z,12.83
2024-01-20T09:57:51.399Z,13.10
2024-01-20T10:00:21.010Z,13.27
2024-01-20T10:02:48.125Z,13.37
2024-01-20T10:05:18.026Z,12.90
2024-01-20T10:07:47.637Z,13.37
2024-01-20T10:10:21.841Z,12.87
2024-01-20T10:12:52.557Z,12.93
2024-01-20T10:15:30.791Z,14.30
2024-01-20T10:18:00.651Z,12.50
2024-01-20T10:20:34.972Z,14.20
2024-01-20T10:23:03.424Z,14.83
2024-01-20T10:25:30.671Z,13.93
2024-01-20T10:27:57.392Z,13.80
2024-01-20T10:30:27.341Z,13.40
2024-01-20T10:33:04.391Z,11.70
2024-01-20T10:35:39.664Z,14.93
2024-01-20T10:38:12.056Z,13.90
2024-01-20T10:40:42.426Z,13.17
2024-01-20T10:43:15.787Z,13.43
2024-01-20T10:45:54.124Z,11.90
2024-01-20T10:48:27.290Z,12.90
2024-01-20T10:50:58.645Z,12.50
2024-01-20T10:53:27.362Z,14.83
2024-01-20T10:55:54.856Z,13.57
2024-01-20T10:58:26.340Z,13.60
2024-01-20T11:00:53.994Z,13.60
2024-01-20T11:03:21.743Z,12.80
2024-01-20T11:05:49.767Z,12.67
2024-01-20T11:08:25.395Z,14.70
2024-01-20T11:10:54.518Z,11.70
2024-01-20T11:13:26.079Z,13.13
2024-01-20T11:15:53.170Z,13.07
2024-01-20T11:18:21.439Z,12.30
2024-01-20T11:21:03.368Z,13.97
2024-01-20T11:23:30.659Z,13.47
2024-01-20T11:26:09.954Z,12.60
2024-01-20T11:28:36.877Z,11.80
2024-01-20T11:31:06.721Z,13.37
2024-01-20T11:33:33.751Z,13.27
2024-01-20T11:36:04.217Z,12.50
2024-01-20T11:38:35.734Z,11.33
2024-01-20T11:41:03.138Z,11.80
2024-01-20T11:43:30.599Z,11.73
2024-01-20T11:45:58.083Z,12.53
2024-01-20T11:48:26.027Z,13.67
2024-01-20T11:50:53.425Z,13.70
2024-01-20T11:53:21.864Z,13.07
2024-01-20T11:56:00.678Z,12.43
2024-01-20T11:58:28.645Z,11.63
2024-01-20T12:00:56.577Z,11.43
2024-01-20T12:03:24.246Z,12.67
2024-01-20T12:05:52.769Z,12.37
2024-01-20T12:08:20.657Z,12.20
2024-01-20T12:10:47.804Z,11.47
2024-01-20T12:13:17.476Z,11.27
2024-01-20T12:15:47.241Z,11.20
2024-01-20T12:18:14.235Z,10.73
2024-01-20T12:20:41.506Z,10.87
2024-01-20T12:23:08.250Z,10.60
2024-01-20T12:25:37.712Z,10.70
2024-01-20T12:28:04.821Z,11.53
2024-01-20T12:30:31.664Z,11.33
2024-01-20T12:32:58.603Z,10.60
2024-01-20T12:35:26.368Z,10.47
2024-01-20T12:37:53.241Z,10.47
2024-01-20T12:40:20.098Z,10.37
2024-01-20T12:42:47.118Z,9.67
2024-01-20T12:45:14.012Z,9.17
2024-01-20T12:47:43.980Z,9.50
2024-01-20T12:50:11.204Z,10.47
2024-01-20T12:52:37.963Z,10.30
2024-01-20T12:55:05.337Z,10.23
2024-01-20T12:57:32.254Z,8.00
2024-01-20T12:59:58.983Z,9.60
2024-01-20T13:02:26.821Z,9.17
2024-01-20T13:04:53.683Z,9.67
2024-01-20T13:07:23.332Z,8.77
2024-01-20T13:09:50.276Z,9.07
2024-01-20T13:12:17.084Z,9.97
2024-01-20T13:14:46.119Z,9.23
2024-01-20T13:17:12.888Z,9.30
2024-01-20T13:19:39.793Z,8.43
2024-01-20T13:22:06.624Z,9.60
2024-01-20T13:24:33.372Z,9.53
2024-01-20T13:27:03.069Z,9.60
2024-01-20T13:29:32.629Z,8.93
2024-01-20T13:31:59.480Z,7.87
2024-01-20T13:34:26.456Z,8.17
2024-01-20T13:36:53.452Z,8.13
2024-01-20T13:39:20.326Z,9.53
2024-01-20T13:41:47.117Z,9.17
2024-01-20T13:44:13.831Z,8.63
2024-01-20T13:46:40.566Z,9.30
2024-01-20T13:49:13.093Z,10.03
2024-01-20T13:51:40.418Z,8.97
2024-01-20T13:54:07.296Z,8.80
2024-01-20T13:56:34.028Z,9.10
2024-01-20T13:59:00.897Z,9.33
2024-01-20T14:01:27.701Z,8.10
2024-01-20T14:03:57.596Z,9.10
2024-01-20T14:06:25.843Z,9.53
2024-01-20T14:08:53.282Z,9.17
2024-01-20T14:11:20.009Z,9.50
2024-01-20T14:13:47.041Z,9.23
2024-01-20T14:16:13.880Z,8.80
2024-01-20T14:18:40.732Z,8.97
2024-01-20T14:21:07.589Z,9.00
2024-01-20T14:23:34.312Z,9.20
2024-01-20T14:26:01.690Z,9.13
2024-01-20T14:28:28.825Z,8.43
2024-01-20T14:30:55.565Z,8.07
2024-01-20T14:33:22.766Z,7.67
2024-01-20T14:35:49.572Z,7.80
2024-01-20T14:38:16.773Z,8.83
2024-01-20T14:40:43.662Z,8.50
2024-01-20T14:43:10.428Z,7.43
2024-01-20T14:45:37.461Z,8.00
2024-01-20T14:48:07.777Z,7.97
2024-01-20T14:50:34.782Z,8.40
2024-01-20T14:53:02.764Z,8.63
2024-01-20T14:55:31.792Z,8.27
2024-01-20T14:57:59.116Z,8.13
2024-01-20T15:00:26.174Z,8.67
2024-01-20T15:02:53.318Z,7.63
2024-01-20T15:05:20.077Z,7.70
2024-01-20T15:07:46.790Z,7.87
2024-01-20T15:10:13.496Z,8.33
2024-01-20T15:12:40.449Z,8.30
2024-01-20T15:15:07.607Z,8.00
2024-01-20T15:17:35.312Z,8.30
2024-01-20T15:20:02.149Z,8.43
2024-01-20T15:22:28.948Z,8.47
2024-01-20T15:24:55.771Z,8.00
2024-01-20T15:27:22.536Z,7.90
2024-01-20T15:29:49.367Z,8.60
2024-01-20T15:32:17.984Z,8.40
2024-01-20T15:34:44.776Z,8.27
2024-01-20T15:37:11.655Z,8.90
2024-01-20T15:39:38.415Z,8.97
2024-01-20T15:42:05.435Z,9.03
2024-01-20T15:44:32.161Z,8.73
2024-01-20T15:47:01.696Z,8.63
2024-01-20T15:49:28.449Z,9.03
2024-01-20T15:51:55.190Z,8.63
2024-01-20T15:54:22.032Z,10.23
2024-01-20T15:56:48.994Z,9.37
2024-01-20T15:59:15.689Z,8.73
2024-01-20T16:01:42.459Z,8.80
2024-01-20T16:04:09.439Z,8.63
2024-01-20T16:06:36.348Z,8.40
2024-01-20T16:09:05.948Z,8.30
2024-01-20T16:11:32.805Z,7.93
2024-01-20T16:13:59.919Z,8.63
2024-01-20T16:16:29.622Z,8.63
2024-01-20T16:18:56.682Z,9.73
2024-01-20T16:21:25.367Z,9.50
2024-01-20T16:23:53.171Z,8.17
2024-01-20T16:26:22.987Z,8.80
2024-01-20T16:28:50.306Z,8.70
2024-01-20T16:31:17.673Z,8.90
2024-01-20T16:33:48.585Z,8.80
2024-01-20T16:36:17.135Z,8.17
2024-01-20T16:38:46.966Z,8.87
2024-01-20T16:41:16.511Z,12.93
2024-01-20T16:43:44.217Z,10.30
2024-01-20T16:46:16.321Z,9.80
2024-01-20T16:48:43.603Z,9.13
2024-01-20T16:51:15.324Z,8.40
2024-01-20T16:53:49.111Z,8.77
2024-01-20T16:56:15.838Z,8.53
2024-01-20T16:58:42.525Z,8.20
2024-01-20T17:01:09.300Z,8.60
2024-01-20T17:03:36.217Z,8.50
2024-01-20T17:06:03.205Z,8.07
2024-01-20T17:08:32.927Z,8.80
2024-01-20T17:10:59.594Z,8.30
2024-01-20T17:13:29.192Z,8.47
2024-01-20T17:15:55.923Z,8.37
2024-01-20T17:18:23.159Z,8.23
2024-01-20T17:20:50.040Z,8.60
2024-01-20T17:23:16.727Z,8.10
2024-01-20T17:25:43.748Z,7.70
2024-01-20T17:28:18.049Z,8.80
2024-01-20T17:30:47.229Z,8.37
2024-01-20T17:33:14.207Z,8.70
2024-01-20T17:35:41.185Z,9.63
2024-01-20T17:38:07.906Z,9.63
2024-01-20T17:40:34.702Z,9.23
2024-01-20T17:43:01.406Z,9.13
2024-01-20T17:45:28.250Z,10.03
2024-01-20T17:47:55.087Z,9.97
2024-01-20T17:50:25.403Z,9.30
2024-01-20T17:52:54.913Z,8.87
2024-01-20T17:55:21.688Z,9.23
2024-01-20T17:57:51.102Z,8.57
2024-01-20T18:00:20.797Z,9.00
2024-01-20T18:02:48.143Z,9.37
2024-01-20T18:05:17.790Z,9.67
2024-01-20T18:07:50.441Z,8.53
2024-01-20T18:10:19.911Z,8.67
2024-01-20T18:12:46.991Z,9.37
2024-01-20T18:15:14.258Z,8.23
2024-01-20T18:17:41.142Z,11.10
2024-01-20T18:20:10.988Z,8.97
2024-01-20T18:22:37.845Z,9.57
2024-01-20T18:25:04.733Z,8.77
2024-01-20T18:27:31.553Z,9.67
2024-01-20T18:29:58.263Z,8.67
2024-01-20T18:32:25.166Z,8.70
2024-01-20T18:34:52.009Z,9.30
2024-01-20T18:37:18.791Z,8.70
2024-01-20T18:39:45.896Z,9.43
2024-01-20T18:42:12.817Z,9.47
2024-01-20T18:44:40.763Z,10.13
2024-01-20T18:47:10.785Z,8.83
2024-01-20T18:49:37.722Z,10.13
2024-01-20T18:52:05.260Z,9.20
2024-01-20T18:54:32.083Z,8.40
2024-01-20T18:56:58.822Z,9.47
2024-01-20T18:59:25.657Z,9.40
2024-01-20T19:01:52.472Z,9.90
2024-01-20T19:04:19.355Z,9.27
2024-01-20T19:06:46.545Z,8.53
2024-01-20T19:09:16.340Z,9.83
2024-01-20T19:11:43.597Z,9.90
2024-01-20T19:14:10.327Z,10.13
2024-01-20T19:16:37.004Z,9.67
2024-01-20T19:19:08.597Z,8.97
2024-01-20T19:21:37.250Z,9.40
2024-01-20T19:24:04.444Z,9.97
2024-01-20T19:26:31.201Z,9.03
2024-01-20T19:28:57.930Z,8.40
2024-01-20T19:31:24.621Z,8.83
2024-01-20T19:33:54.359Z,9.50
2024-01-20T19:36:21.415Z,9.63
2024-01-20T19:38:48.374Z,9.50
2024-01-20T19:41:16.123Z,8.80
2024-01-20T19:43:42.977Z,10.17
2024-01-20T19:46:09.754Z,9.13
2024-01-20T19:48:36.861Z,8.90
2024-01-20T19:51:04.839Z,8.33
2024-01-20T19:53:32.037Z,9.87
2024-01-20T19:55:58.734Z,8.87
2024-01-20T19:58:26.570Z,9.17
2024-01-20T20:00:53.498Z,8.73
2024-01-20T20:03:20.645Z,9.73
2024-01-20T20:05:47.766Z,9.77
2024-01-20T20:08:15.979Z,8.60
2024-01-20T20:10:48.269Z,8.60
2024-01-20T20:13:15.030Z,9.30
2024-01-20T20:15:41.885Z,8.53
2024-01-20T20:18:08.825Z,8.83
2024-01-20T20:20:36.672Z,8.20
2024-01-20T20:23:04.469Z,8.53
2024-01-20T20:25:31.377Z,9.13
2024-01-20T20:27:58.182Z,8.23
2024-01-20T20:30:27.366Z,7.87
2024-01-20T20:32:56.398Z,9.40
2024-01-20T20:35:23.269Z,7.83
2024-01-20T20:37:50.244Z,9.10
2024-01-20T20:40:17.560Z,8.63
2024-01-20T20:42:44.474Z,9.43
2024-01-20T20:45:12.042Z,8.17
2024-01-20T20:47:39.044Z,8.67
2024-01-20T20:50:06.713Z,8.50
2024-01-20T20:52:33.696Z,10.07
2024-01-20T20:55:00.464Z,8.73
2024-01-20T20:57:27.128Z,8.27
2024-01-20T20:59:54.648Z,9.10
2024-01-20T21:02:22.278Z,8.03
2024-01-20T21:04:50.250Z,8.60
2024-01-20T21:07:19.086Z,8.77
2024-01-20T21:09:46.872Z,8.50
2024-01-20T21:12:13.880Z,8.03
2024-01-20T21:14:40.844Z,8.13
2024-01-20T21:17:10.320Z,6.93
2024-01-20T21:19:37.258Z,7.87
2024-01-20T21:22:04.410Z,7.37
2024-01-20T21:24:32.556Z,8.07
2024-01-20T21:26:59.359Z,7.63
2024-01-20T21:29:26.211Z,8.03
2024-01-20T21:31:52.922Z,7.77
2024-01-20T21:34:19.988Z,8.20
2024-01-20T21:36:46.964Z,8.80
2024-01-20T21:39:16.882Z,6.73
2024-01-20T21:41:43.661Z,7.57
2024-01-20T21:44:10.438Z,7.00
2024-01-20T21:46:37.201Z,6.90
2024-01-20T21:49:05.181Z,7.10
2024-01-20T21:51:32.141Z,7.17
2024-01-20T21:53:58.990Z,7.57
2024-01-20T21:56:25.838Z,7.57
2024-01-20T21:58:52.483Z,7.50
2024-01-20T22:01:19.877Z,7.37
2024-01-20T22:03:49.502Z,7.17
2024-01-20T22:06:16.305Z,6.83
2024-01-20T22:08:43.083Z,6.87
2024-01-20T22:11:10.088Z,7.20
2024-01-20T22:13:37.098Z,6.93
2024-01-20T22:16:03.997Z,7.37
2024-01-20T22:18:30.884Z,6.40
2024-01-20T22:20:58.691Z,6.93
2024-01-20T22:23:25.693Z,6.73
2024-01-20T22:25:52.501Z,5.77
2024-01-20T22:28:21.797Z,6.67
2024-01-20T22:30:48.607Z,6.50
2024-01-20T22:33:15.436Z,6.17
2024-01-20T22:35:42.309Z,7.00
2024-01-20T22:38:09.807Z,6.50
2024-01-20T22:40:36.785Z,9.07
2024-01-20T22:43:03.817Z,7.50
2024-01-20T22:45:30.686Z,7.77
2024-01-20T22:47:57.577Z,7.23
2024-01-20T22:50:24.796Z,7.20
2024-01-20T22:52:51.544Z,7.47
2024-01-20T22:55:18.348Z,7.33
2024-01-20T22:57:45.265Z,7.10
2024-01-20T23:00:14.142Z,6.43
2024-01-20T23:02:44.345Z,6.80
2024-01-20T23:05:13.772Z,6.33
2024-01-20T23:07:40.676Z,5.87
2024-01-20T23:10:09.165Z,6.80
2024-01-20T23:12:36.636Z,6.10
2024-01-20T23:15:07.439Z,6.13
2024-01-20T23:17:34.229Z,6.00
2024-01-20T23:20:04.811Z,6.27
2024-01-20T23:22:32.424Z,6.23
2024-01-20T23:24:59.242Z,5.17
2024-01-20T23:27:26.073Z,6.37
2024-01-20T23:29:56.141Z,5.17
2024-01-20T23:32:23.448Z,5.20
2024-01-20T23:34:51.025Z,5.70
2024-01-20T23:37:19.227Z,6.07
2024-01-20T23:39:46.080Z,6.27
2024-01-20T23:42:14.686Z,6.00
2024-01-20T23:44:41.595Z,5.83
2024-01-20T23:47:08.417Z,5.60
2024-01-20T23:49:35.880Z,5.20
2024-01-20T23:52:08.236Z,5.90
2024-01-20T23:54:35.319Z,5.93
2024-01-20T23:57:02.703Z,5.50
2024-01-20T23:59:29.566Z,5.10
